createdAt,value
2022-11-15T00:00:09.253Z,7.57
2022-11-15T00:02:41.760Z,7.60
2022-11-15T00:05:14.305Z,7.68
2022-11-15T00:07:55.514Z,7.83
2022-11-15T00:10:28.623Z,7.91
2022-11-15T00:13:01.124Z,8.00
2022-11-15T00:15:37.464Z,7.86
2022-11-15T00:18:17.206Z,8.06
2022-11-15T00:20:49.689Z,8.13
2022-11-15T00:23:22.347Z,8.26
2022-11-15T00:25:59.533Z,8.28
2022-11-15T00:28:32.109Z,8.42
2022-11-15T00:31:08.563Z,8.46
2022-11-15T00:33:44.428Z,8.45
2022-11-15T00:36:17.186Z,8.53
2022-11-15T00:38:49.750Z,8.50
2022-11-15T00:41:22.283Z,8.64
2022-11-15T00:43:55.020Z,8.66
2022-11-15T00:46:27.719Z,8.69
2022-11-15T00:49:00.221Z,8.83
2022-11-15T00:51:32.740Z,8.85
2022-11-15T00:54:05.320Z,8.84
2022-11-15T00:56:37.843Z,8.85
2022-11-15T00:59:10.317Z,8.88
2022-11-15T01:01:42.986Z,8.97
2022-11-15T01:04:15.525Z,8.98
2022-11-15T01:06:48.287Z,8.86
2022-11-15T01:09:20.930Z,8.94
2022-11-15T01:11:53.621Z,8.95
2022-11-15T01:14:26.238Z,9.06
2022-11-15T01:16:58.731Z,8.98
2022-11-15T01:19:31.324Z,9.17
2022-11-15T01:22:03.828Z,9.24
2022-11-15T01:24:38.779Z,8.98
2022-11-15T01:27:11.451Z,9.13
2022-11-15T01:29:43.948Z,9.07
2022-11-15T01:32:16.604Z,9.11
2022-11-15T01:34:49.148Z,9.16
2022-11-15T01:37:21.661Z,9.10
2022-11-15T01:39:54.214Z,9.18
2022-11-15T01:42:26.881Z,9.24
2022-11-15T01:44:59.420Z,9.14
2022-11-15T01:47:41.477Z,9.24
2022-11-15T01:50:22.591Z,9.39
2022-11-15T01:52:56.374Z,9.38
2022-11-15T01:55:29.671Z,9.41
2022-11-15T01:58:06.454Z,9.53
2022-11-15T02:00:39.130Z,9.66
2022-11-15T02:03:11.934Z,9.62
2022-11-15T02:05:45.431Z,9.69
2022-11-15T02:08:20.726Z,9.81
2022-11-15T02:10:53.324Z,9.91
2022-11-15T02:13:26.255Z,9.97
2022-11-15T02:16:23.200Z,9.69
2022-11-15T02:19:35.514Z,9.99
2022-11-15T02:22:49.020Z,10.02
2022-11-15T02:25:32.546Z,10.14
2022-11-15T02:28:31.923Z,10.10
2022-11-15T02:31:29.298Z,10.14
2022-11-15T02:34:30.292Z,10.13
2022-11-15T02:37:39.700Z,10.18
2022-11-15T02:40:45.709Z,10.19
2022-11-15T02:43:53.191Z,10.25
2022-11-15T02:46:49.382Z,10.24
2022-11-15T02:49:25.961Z,10.29
2022-11-15T02:51:58.520Z,10.35
2022-11-15T02:54:34.408Z,10.30
2022-11-15T02:57:20.236Z,10.41
2022-11-15T03:00:01.748Z,10.40
2022-11-15T03:03:23.106Z,10.48
2022-11-15T03:06:09.539Z,10.46
2022-11-15T03:09:16.040Z,10.49
2022-11-15T03:12:01.382Z,10.44
2022-11-15T03:14:46.273Z,10.40
2022-11-15T03:17:31.468Z,10.48
2022-11-15T03:20:07.508Z,10.33
2022-11-15T03:22:45.637Z,10.52
2022-11-15T03:25:23.831Z,10.63
2022-11-15T03:28:04.979Z,10.56
2022-11-15T03:30:40.856Z,10.59
2022-11-15T03:33:13.831Z,10.74
2022-11-15T03:35:49.401Z,10.75
2022-11-15T03:38:27.360Z,10.61
2022-11-15T03:41:05.782Z,10.68
2022-11-15T03:43:50.947Z,10.66
2022-11-15T03:47:04.241Z,10.76
2022-11-15T03:49:45.113Z,10.71
2022-11-15T03:52:22.838Z,10.58
2022-11-15T03:54:57.572Z,10.66
2022-11-15T03:57:30.200Z,10.71
2022-11-15T04:00:05.392Z,10.74
2022-11-15T04:02:38.240Z,10.73
2022-11-15T04:05:10.855Z,10.76
2022-11-15T04:07:43.453Z,10.67
2022-11-15T04:10:17.227Z,10.75
2022-11-15T04:12:50.168Z,10.78
2022-11-15T04:15:24.773Z,10.71
2022-11-15T04:17:58.618Z,10.81
2022-11-15T04:20:51.180Z,10.62
2022-11-15T04:23:43.120Z,10.72
2022-11-15T04:26:21.727Z,10.74
2022-11-15T04:29:13.356Z,10.74
2022-11-15T04:31:45.820Z,10.80
2022-11-15T04:34:18.347Z,10.75
2022-11-15T04:37:09.749Z,10.77
2022-11-15T04:39:44.138Z,10.77
2022-11-15T04:42:16.604Z,10.82
2022-11-15T04:44:49.080Z,10.79
2022-11-15T04:47:21.601Z,10.68
2022-11-15T04:49:54.165Z,10.82
2022-11-15T04:52:26.681Z,10.83
2022-11-15T04:55:01.401Z,10.60
2022-11-15T04:57:38.797Z,10.71
2022-11-15T05:00:15.785Z,10.77
2022-11-15T05:03:06.815Z,10.79
2022-11-15T05:05:39.468Z,10.84
2022-11-15T05:08:11.997Z,10.81
2022-11-15T05:10:44.496Z,10.74
2022-11-15T05:13:17.348Z,10.76
2022-11-15T05:15:50.075Z,10.75
2022-11-15T05:18:23.878Z,10.75
2022-11-15T05:20:56.811Z,10.68
2022-11-15T05:23:29.676Z,10.84
2022-11-15T05:26:09.177Z,10.79
2022-11-15T05:28:42.192Z,10.75
2022-11-15T05:31:17.396Z,10.83
2022-11-15T05:33:52.628Z,10.81
2022-11-15T05:36:43.466Z,10.79
2022-11-15T05:39:16.136Z,10.81
2022-11-15T05:42:03.354Z,10.82
2022-11-15T05:44:40.698Z,10.85
2022-11-15T05:47:25.337Z,10.77
2022-11-15T05:49:58.764Z,10.72
2022-11-15T05:52:37.969Z,10.74
2022-11-15T05:55:11.113Z,10.67
2022-11-15T05:57:44.062Z,10.64
2022-11-15T06:00:17.157Z,10.68
2022-11-15T06:02:49.865Z,10.70
2022-11-15T06:05:22.401Z,10.76
2022-11-15T06:07:59.973Z,10.62
2022-11-15T06:10:33.871Z,10.59
2022-11-15T06:13:06.842Z,10.83
2022-11-15T06:15:39.285Z,10.88
2022-11-15T06:18:11.774Z,10.86
2022-11-15T06:20:44.341Z,10.82
2022-11-15T06:23:16.956Z,10.81
2022-11-15T06:25:49.512Z,10.79
2022-11-15T06:28:23.060Z,10.70
2022-11-15T06:30:55.592Z,10.84
2022-11-15T06:33:28.137Z,10.75
2022-11-15T06:36:05.895Z,10.81
2022-11-15T06:38:38.414Z,10.64
2022-11-15T06:41:12.955Z,10.70
2022-11-15T06:43:45.471Z,10.74
2022-11-15T06:46:18.053Z,10.65
2022-11-15T06:48:54.605Z,10.84
2022-11-15T06:51:27.120Z,10.75
2022-11-15T06:53:59.737Z,10.75
2022-11-15T06:56:32.372Z,10.85
2022-11-15T06:59:04.903Z,10.78
2022-11-15T07:01:37.484Z,10.74
2022-11-15T07:04:10.054Z,10.69
2022-11-15T07:06:42.536Z,10.66
2022-11-15T07:09:15.979Z,10.72
2022-11-15T07:11:48.468Z,10.53
2022-11-15T07:14:20.976Z,10.64
2022-11-15T07:16:53.697Z,10.74
2022-11-15T07:19:26.181Z,10.38
2022-11-15T07:21:58.669Z,10.48
2022-11-15T07:24:31.171Z,10.50
2022-11-15T07:27:03.793Z,10.62
2022-11-15T07:29:36.412Z,10.61
2022-11-15T07:32:10.308Z,10.67
2022-11-15T07:34:42.897Z,10.64
2022-11-15T07:37:15.522Z,10.66
2022-11-15T07:39:48.066Z,10.57
2022-11-15T07:42:39.446Z,10.57
2022-11-15T07:45:11.930Z,10.53
2022-11-15T07:47:47.985Z,10.58
2022-11-15T07:50:20.755Z,10.71
2022-11-15T07:53:00.551Z,10.55
2022-11-15T07:55:33.116Z,10.56
2022-11-15T07:58:09.283Z,10.51
2022-11-15T08:00:41.755Z,10.56
2022-11-15T08:03:17.729Z,10.52
2022-11-15T08:05:53.454Z,10.45
2022-11-15T08:08:26.003Z,10.62
2022-11-15T08:10:59.642Z,10.70
2022-11-15T08:13:32.548Z,10.74
2022-11-15T08:16:06.546Z,10.27
2022-11-15T08:18:39.179Z,10.47
2022-11-15T08:21:18.630Z,10.43
2022-11-15T08:23:51.144Z,10.54
2022-11-15T08:26:23.824Z,10.44
2022-11-15T08:28:56.463Z,10.48
2022-11-15T08:31:28.992Z,10.31
2022-11-15T08:34:02.178Z,10.35
2022-11-15T08:36:43.007Z,10.27
2022-11-15T08:39:18.354Z,10.42
2022-11-15T08:41:50.901Z,10.38
2022-11-15T08:44:24.913Z,10.27
2022-11-15T08:46:57.559Z,10.33
2022-11-15T08:49:30.079Z,10.27
2022-11-15T08:52:02.591Z,10.33
2022-11-15T08:54:35.120Z,10.40
2022-11-15T08:57:08.106Z,10.58
2022-11-15T08:59:40.628Z,10.59
2022-11-15T09:02:15.561Z,10.66
2022-11-15T09:04:49.045Z,10.71
2022-11-15T09:07:23.748Z,10.81
2022-11-15T09:09:56.514Z,10.72
2022-11-15T09:12:32.458Z,10.55
2022-11-15T09:15:07.366Z,10.79
2022-11-15T09:17:39.853Z,10.77
2022-11-15T09:20:12.711Z,10.88
2022-11-15T09:22:47.357Z,10.79
2022-11-15T09:25:19.893Z,10.84
2022-11-15T09:28:00.136Z,10.90
2022-11-15T09:30:37.040Z,10.89
2022-11-15T09:33:12.325Z,10.82
2022-11-15T09:35:44.983Z,10.79
2022-11-15T09:38:21.697Z,10.88
2022-11-15T09:41:12.581Z,10.88
2022-11-15T09:43:58.184Z,10.98
2022-11-15T09:47:02.368Z,10.89
2022-11-15T09:49:35.040Z,10.77
2022-11-15T09:52:14.299Z,10.74
2022-11-15T09:54:53.796Z,10.89
2022-11-15T09:57:46.061Z,10.88
2022-11-15T10:00:47.579Z,10.89
2022-11-15T10:03:37.032Z,10.96
2022-11-15T10:06:24.307Z,10.93
2022-11-15T10:09:08.307Z,10.92
2022-11-15T10:11:44.760Z,11.13
2022-11-15T10:14:26.371Z,11.23
2022-11-15T10:17:32.822Z,11.26
2022-11-15T10:20:21.458Z,11.34
2022-11-15T10:23:01.986Z,11.41
2022-11-15T10:25:35.779Z,11.18
2022-11-15T10:28:28.855Z,11.21
2022-11-15T10:31:02.345Z,11.17
2022-11-15T10:33:40.022Z,11.05
2022-11-15T10:36:12.401Z,11.23
2022-11-15T10:38:50.768Z,11.18
2022-11-15T10:41:45.971Z,11.02
2022-11-15T10:44:31.500Z,11.33
2022-11-15T10:47:03.930Z,11.20
2022-11-15T10:49:36.678Z,11.17
2022-11-15T10:52:21.215Z,11.31
2022-11-15T10:55:08.252Z,11.38
2022-11-15T10:57:49.027Z,11.38
2022-11-15T11:00:21.435Z,11.61
2022-11-15T11:02:56.949Z,11.54
2022-11-15T11:05:42.271Z,11.82
2022-11-15T11:08:15.411Z,11.83
2022-11-15T11:11:03.593Z,11.89
2022-11-15T11:13:40.933Z,11.84
2022-11-15T11:16:23.200Z,11.77
2022-11-15T11:19:19.369Z,12.16
2022-11-15T11:22:30.776Z,11.88
2022-11-15T11:25:41.934Z,12.09
2022-11-15T11:28:37.654Z,11.87
2022-11-15T11:31:42.515Z,11.85
2022-11-15T11:34:20.995Z,12.07
2022-11-15T11:37:06.192Z,12.05
2022-11-15T11:40:30.116Z,12.29
2022-11-15T11:43:11.577Z,12.50
2022-11-15T11:46:23.457Z,12.48
2022-11-15T11:49:39.578Z,12.50
2022-11-15T11:52:28.608Z,12.69
2022-11-15T11:55:39.542Z,12.65
2022-11-15T11:58:34.876Z,12.82
2022-11-15T12:01:44.528Z,12.65
2022-11-15T12:04:36.441Z,12.73
2022-11-15T12:07:20.291Z,12.60
2022-11-15T12:10:03.917Z,12.76
2022-11-15T12:12:50.011Z,12.80
2022-11-15T12:15:51.171Z,12.77
2022-11-15T12:18:23.748Z,12.87
2022-11-15T12:21:44.456Z,13.00
2022-11-15T12:24:30.896Z,13.04
2022-11-15T12:27:20.524Z,12.76
2022-11-15T12:30:02.084Z,12.87
2022-11-15T12:32:49.266Z,12.97
2022-11-15T12:35:43.599Z,12.83
2022-11-15T12:39:03.649Z,12.68
2022-11-15T12:42:04.667Z,12.92
2022-11-15T12:44:38.452Z,12.67
2022-11-15T12:47:10.857Z,12.82
2022-11-15T12:49:46.465Z,12.89
2022-11-15T12:52:19.818Z,12.69
2022-11-15T12:54:59.545Z,12.81
2022-11-15T12:57:37.196Z,12.73
2022-11-15T13:00:15.609Z,12.78
2022-11-15T13:02:49.399Z,12.61
2022-11-15T13:05:44.693Z,12.66
2022-11-15T13:08:41.817Z,12.81
2022-11-15T13:11:52.341Z,12.91
2022-11-15T13:14:55.455Z,12.64
2022-11-15T13:17:36.135Z,12.77
2022-11-15T13:20:08.483Z,12.95
2022-11-15T13:22:55.648Z,13.16
2022-11-15T13:25:37.200Z,13.32
2022-11-15T13:28:15.594Z,13.25
2022-11-15T13:30:47.991Z,13.31
2022-11-15T13:33:35.882Z,13.38
2022-11-15T13:36:20.956Z,13.16
2022-11-15T13:39:13.228Z,13.36
2022-11-15T13:41:50.266Z,13.40
2022-11-15T13:44:33.322Z,13.28
2022-11-15T13:47:13.541Z,13.31
2022-11-15T13:49:46.047Z,13.34
2022-11-15T13:52:18.721Z,13.25
2022-11-15T13:55:14.218Z,13.07
2022-11-15T13:57:52.546Z,13.02
2022-11-15T14:00:45.760Z,12.93
2022-11-15T14:03:18.266Z,12.92
2022-11-15T14:06:16.845Z,13.07
2022-11-15T14:09:26.339Z,12.96
2022-11-15T14:11:59.116Z,13.04
2022-11-15T14:14:31.747Z,12.75
2022-11-15T14:17:04.311Z,12.95
2022-11-15T14:19:40.466Z,12.83
2022-11-15T14:22:17.142Z,12.84
2022-11-15T14:25:16.009Z,12.69
2022-11-15T14:28:19.466Z,12.85
2022-11-15T14:30:56.156Z,12.73
2022-11-15T14:33:40.060Z,12.71
2022-11-15T14:36:20.811Z,12.74
2022-11-15T14:38:55.122Z,12.84
2022-11-15T14:41:27.821Z,12.70
2022-11-15T14:44:00.700Z,12.65
2022-11-15T14:46:33.254Z,12.71
2022-11-15T14:49:05.810Z,12.62
2022-11-15T14:51:38.278Z,12.63
2022-11-15T14:54:11.676Z,12.65
2022-11-15T14:56:44.157Z,12.59
2022-11-15T14:59:16.625Z,12.71
2022-11-15T15:01:49.089Z,12.56
2022-11-15T15:04:21.538Z,12.58
2022-11-15T15:06:54.142Z,12.56
2022-11-15T15:09:26.680Z,12.58
2022-11-15T15:12:04.884Z,12.62
2022-11-15T15:14:38.658Z,12.57
2022-11-15T15:17:11.369Z,12.51
2022-11-15T15:19:44.189Z,12.55
2022-11-15T15:22:19.805Z,12.51
2022-11-15T15:24:52.526Z,12.58
2022-11-15T15:27:25.078Z,12.49
2022-11-15T15:29:57.544Z,12.60
2022-11-15T15:32:30.004Z,12.53
2022-11-15T15:35:02.493Z,12.55
2022-11-15T15:37:35.519Z,12.46
2022-11-15T15:40:21.056Z,12.45
2022-11-15T15:42:53.587Z,12.31
2022-11-15T15:45:28.259Z,12.42
2022-11-15T15:48:00.735Z,12.49
2022-11-15T15:50:35.685Z,12.44
2022-11-15T15:53:08.997Z,12.44
2022-11-15T15:55:41.882Z,12.46
2022-11-15T15:58:14.349Z,12.46
2022-11-15T16:00:46.853Z,12.37
2022-11-15T16:03:19.400Z,12.48
2022-11-15T16:05:52.579Z,12.35
2022-11-15T16:08:31.917Z,12.44
2022-11-15T16:11:11.135Z,12.40
2022-11-15T16:13:43.621Z,12.38
2022-11-15T16:16:22.778Z,12.35
2022-11-15T16:18:55.407Z,12.18
2022-11-15T16:21:28.848Z,12.28
2022-11-15T16:24:02.331Z,12.21
2022-11-15T16:26:37.574Z,12.21
2022-11-15T16:29:11.304Z,12.12
2022-11-15T16:31:43.764Z,11.90
2022-11-15T16:34:16.229Z,11.92
2022-11-15T16:36:49.109Z,11.82
2022-11-15T16:39:23.392Z,11.82
2022-11-15T16:41:55.937Z,11.75
2022-11-15T16:44:29.235Z,11.60
2022-11-15T16:47:02.361Z,11.63
2022-11-15T16:49:34.865Z,11.55
2022-11-15T16:52:07.335Z,11.60
2022-11-15T16:54:39.855Z,11.43
2022-11-15T16:57:12.352Z,11.36
2022-11-15T16:59:44.818Z,11.37
2022-11-15T17:02:17.337Z,11.33
2022-11-15T17:04:49.859Z,11.31
2022-11-15T17:07:22.483Z,11.34
2022-11-15T17:09:55.065Z,11.21
2022-11-15T17:12:27.695Z,11.08
2022-11-15T17:15:00.256Z,11.13
2022-11-15T17:17:33.148Z,11.14
2022-11-15T17:20:10.009Z,10.99
2022-11-15T17:22:42.719Z,11.02
2022-11-15T17:25:15.367Z,11.01
2022-11-15T17:27:48.349Z,11.04
2022-11-15T17:30:20.837Z,10.98
2022-11-15T17:32:53.398Z,10.94
2022-11-15T17:35:26.062Z,10.92
2022-11-15T17:37:58.577Z,10.96
2022-11-15T17:40:31.197Z,10.94
2022-11-15T17:43:06.285Z,10.92
2022-11-15T17:45:42.244Z,10.84
2022-11-15T17:48:14.638Z,10.85
2022-11-15T17:51:04.752Z,10.87
2022-11-15T17:53:40.511Z,10.57
2022-11-15T17:56:19.762Z,10.77
2022-11-15T17:58:58.998Z,10.69
2022-11-15T18:01:34.741Z,10.56
2022-11-15T18:04:10.014Z,10.74
2022-11-15T18:06:43.023Z,10.71
2022-11-15T18:09:15.504Z,10.67
2022-11-15T18:11:51.509Z,10.74
2022-11-15T18:14:26.029Z,10.60
2022-11-15T18:16:58.522Z,10.68
2022-11-15T18:19:31.021Z,10.64
2022-11-15T18:22:05.458Z,10.81
2022-11-15T18:24:42.848Z,10.75
2022-11-15T18:27:15.364Z,10.82
2022-11-15T18:29:47.867Z,10.82
2022-11-15T18:32:20.377Z,10.81
2022-11-15T18:34:53.543Z,10.72
2022-11-15T18:37:26.105Z,10.64
2022-11-15T18:39:58.556Z,10.65
2022-11-15T18:42:32.977Z,10.64
2022-11-15T18:45:06.421Z,10.73
2022-11-15T18:47:38.897Z,10.83
2022-11-15T18:50:11.403Z,10.88
2022-11-15T18:52:43.874Z,10.88
2022-11-15T18:55:16.370Z,10.87
2022-11-15T18:57:48.887Z,10.89
2022-11-15T19:00:21.437Z,10.81
2022-11-15T19:02:54.798Z,10.96
2022-11-15T19:05:27.381Z,10.93
2022-11-15T19:07:59.848Z,11.07
2022-11-15T19:10:34.586Z,10.89
2022-11-15T19:13:07.040Z,11.13
2022-11-15T19:15:39.546Z,11.08
2022-11-15T19:18:12.034Z,11.13
2022-11-15T19:20:44.581Z,11.16
2022-11-15T19:23:17.197Z,11.14
2022-11-15T19:26:01.592Z,11.01
2022-11-15T19:28:34.345Z,10.99
2022-11-15T19:31:15.875Z,11.08
2022-11-15T19:33:48.471Z,11.07
2022-11-15T19:36:32.457Z,11.00
2022-11-15T19:39:10.018Z,11.11
2022-11-15T19:41:44.331Z,11.04
2022-11-15T19:44:18.233Z,11.09
2022-11-15T19:46:50.817Z,11.18
2022-11-15T19:49:23.503Z,11.12
2022-11-15T19:51:56.380Z,11.13
2022-11-15T19:54:28.918Z,11.15
2022-11-15T19:57:01.482Z,11.11
2022-11-15T19:59:34.028Z,11.18
2022-11-15T20:02:07.250Z,11.03
2022-11-15T20:04:39.911Z,11.21
2022-11-15T20:07:12.562Z,11.18
2022-11-15T20:09:45.228Z,11.21
2022-11-15T20:12:17.921Z,11.21
2022-11-15T20:14:50.495Z,11.30
2022-11-15T20:17:23.893Z,11.23
2022-11-15T20:19:56.513Z,11.32
2022-11-15T20:22:29.072Z,11.24
2022-11-15T20:25:01.673Z,11.23
2022-11-15T20:27:34.250Z,11.26
2022-11-15T20:30:07.880Z,11.32
2022-11-15T20:32:40.478Z,11.34
2022-11-15T20:35:13.191Z,11.37
2022-11-15T20:37:45.775Z,11.33
2022-11-15T20:40:18.506Z,11.26
2022-11-15T20:42:54.311Z,11.34
2022-11-15T20:45:26.978Z,11.24
2022-11-15T20:47:59.553Z,11.41
2022-11-15T20:50:47.442Z,11.32
2022-11-15T20:53:20.368Z,11.23
2022-11-15T20:55:54.918Z,11.34
2022-11-15T20:58:30.175Z,11.28
2022-11-15T21:01:05.712Z,11.29
2022-11-15T21:03:38.459Z,11.24
2022-11-15T21:06:11.883Z,11.35
2022-11-15T21:09:03.189Z,11.44
2022-11-15T21:11:54.712Z,11.19
2022-11-15T21:14:27.293Z,11.27
2022-11-15T21:16:59.937Z,11.43
2022-11-15T21:19:35.792Z,11.42
2022-11-15T21:22:14.005Z,11.52
2022-11-15T21:24:46.750Z,11.45
2022-11-15T21:27:19.491Z,11.50
2022-11-15T21:29:52.156Z,11.33
2022-11-15T21:32:24.796Z,11.45
2022-11-15T21:34:57.420Z,11.47
2022-11-15T21:37:29.908Z,11.55
2022-11-15T21:40:02.973Z,11.47
2022-11-15T21:42:35.509Z,11.46
2022-11-15T21:45:08.716Z,11.44
2022-11-15T21:47:46.054Z,11.38
2022-11-15T21:50:19.698Z,11.42
2022-11-15T21:52:55.484Z,11.45
2022-11-15T21:55:29.965Z,11.42
2022-11-15T21:58:02.723Z,11.45
2022-11-15T22:00:54.702Z,11.49
2022-11-15T22:03:27.356Z,11.50
2022-11-15T22:06:07.540Z,11.48
2022-11-15T22:08:40.522Z,11.55
2022-11-15T22:11:14.553Z,11.31
2022-11-15T22:13:47.416Z,11.54
2022-11-15T22:16:22.371Z,11.50
2022-11-15T22:19:03.421Z,11.44
2022-11-15T22:21:40.173Z,11.46
2022-11-15T22:24:18.297Z,11.49
2022-11-15T22:26:56.963Z,11.46
2022-11-15T22:29:32.071Z,11.33
2022-11-15T22:32:11.607Z,11.30
2022-11-15T22:34:48.568Z,11.45
2022-11-15T22:37:25.770Z,11.35
2022-11-15T22:40:00.430Z,11.41
2022-11-15T22:42:35.104Z,11.31
2022-11-15T22:45:08.250Z,11.46
2022-11-15T22:47:44.149Z,11.33
2022-11-15T22:50:17.239Z,11.51
2022-11-15T22:52:55.671Z,11.45
2022-11-15T22:55:32.874Z,11.33
2022-11-15T22:58:11.592Z,11.38
2022-11-15T23:00:44.438Z,11.50
2022-11-15T23:03:18.042Z,11.47
2022-11-15T23:05:51.646Z,11.29
2022-11-15T23:08:24.278Z,11.49
2022-11-15T23:11:19.840Z,11.43
2022-11-15T23:13:53.689Z,11.51
2022-11-15T23:19:20.749Z,11.40
2022-11-15T23:22:12.122Z,11.42
2022-11-15T23:24:44.671Z,11.47
2022-11-15T23:27:20.095Z,11.48
2022-11-15T23:30:20.388Z,11.54
2022-11-15T23:33:11.435Z,11.56
2022-11-15T23:35:56.844Z,11.46
2022-11-15T23:38:29.777Z,11.48
2022-11-15T23:41:04.483Z,11.53
2022-11-15T23:43:37.151Z,11.36
2022-11-15T23:46:09.845Z,11.46
2022-11-15T23:48:42.537Z,11.51
2022-11-15T23:51:15.137Z,11.56
2022-11-15T23:53:47.811Z,11.54
2022-11-15T23:56:22.005Z,11.51
2022-11-15T23:58:54.677Z,11.58
